sensor_id;sensor_type;location;lat;lon;timestamp;P1;durP1;ratioP1;P2;durP2;ratioP2
75984;SDS011;65033;44.660;37.758;2023-02-15T00:00:47;3.47;;;2.92;;
75984;SDS011;65033;44.660;37.758;2023-02-15T00:01:51;3.50;;;3.20;;
75984;SDS011;65033;44.660;37.758;2023-02-15T00:02:55;3.47;;;2.90;;
75984;SDS011;65033;44.660;37.758;2023-02-15T00:03:58;3.67;;;3.22;;
75984;SDS011;65033;44.660;37.758;2023-02-15T00:05:02;3.55;;;3.28;;
75984;SDS011;65033;44.660;37.758;2023-02-15T00:06:05;5.35;;;3.00;;
75984;SDS011;65033;44.660;37.758;2023-02-15T00:07:08;3.17;;;2.88;;
75984;SDS011;65033;44.660;37.758;2023-02-15T00:08:12;4.07;;;2.90;;
75984;SDS011;65033;44.660;37.758;2023-02-15T00:09:15;3.13;;;2.63;;
75984;SDS011;65033;44.660;37.758;2023-02-15T00:10:18;3.92;;;3.50;;
75984;SDS011;65033;44.660;37.758;2023-02-15T00:11:21;4.00;;;3.35;;
75984;SDS011;65033;44.660;37.758;2023-02-15T00:12:44;3.50;;;3.20;;
75984;SDS011;65033;44.660;37.758;2023-02-15T00:13:49;3.20;;;2.90;;
75984;SDS011;65033;44.660;37.758;2023-02-15T00:14:54;3.55;;;2.97;;
75984;SDS011;65033;44.660;37.758;2023-02-15T00:16:00;3.10;;;2.80;;
75984;SDS011;65033;44.660;37.758;2023-02-15T00:17:04;4.30;;;3.03;;
75984;SDS011;65033;44.660;37.758;2023-02-15T00:18:07;2.67;;;2.47;;
75984;SDS011;65033;44.660;37.758;2023-02-15T00:19:11;3.90;;;3.10;;
75984;SDS011;65033;44.660;37.758;2023-02-15T00:20:16;4.72;;;3.15;;
75984;SDS011;65033;44.660;37.758;2023-02-15T00:21:20;4.00;;;3.20;;
75984;SDS011;65033;44.660;37.758;2023-02-15T00:22:24;3.33;;;3.03;;
75984;SDS011;65033;44.660;37.758;2023-02-15T00:23:28;3.03;;;2.72;;
75984;SDS011;65033;44.660;37.758;2023-02-15T00:24:31;3.22;;;2.83;;
75984;SDS011;65033;44.660;37.758;2023-02-15T00:25:34;3.58;;;3.28;;
75984;SDS011;65033;44.660;37.758;2023-02-15T00:26:37;3.78;;;2.92;;
75984;SDS011;65033;44.660;37.758;2023-02-15T00:27:41;3.13;;;2.80;;
75984;SDS011;65033;44.660;37.758;2023-02-15T00:28:44;4.10;;;3.38;;
75984;SDS011;65033;44.660;37.758;2023-02-15T00:29:49;2.90;;;2.60;;
75984;SDS011;65033;44.660;37.758;2023-02-15T00:30:52;3.50;;;3.15;;
75984;SDS011;65033;44.660;37.758;2023-02-15T00:31:56;3.17;;;2.88;;
75984;SDS011;65033;44.660;37.758;2023-02-15T00:32:59;3.67;;;2.80;;
75984;SDS011;65033;44.660;37.758;2023-02-15T00:34:03;3.03;;;2.72;;
75984;SDS011;65033;44.660;37.758;2023-02-15T00:35:06;3.00;;;2.70;;
75984;SDS011;65033;44.660;37.758;2023-02-15T00:36:10;3.53;;;2.92;;
75984;SDS011;65033;44.660;37.758;2023-02-15T00:37:14;3.72;;;3.35;;
75984;SDS011;65033;44.660;37.758;2023-02-15T00:38:21;3.25;;;2.95;;
75984;SDS011;65033;44.660;37.758;2023-02-15T00:39:24;3.65;;;2.90;;
75984;SDS011;65033;44.660;37.758;2023-02-15T00:40:29;3.88;;;2.95;;
75984;SDS011;65033;44.660;37.758;2023-02-15T00:41:32;4.20;;;3.13;;
75984;SDS011;65033;44.660;37.758;2023-02-15T00:42:36;4.03;;;2.55;;
75984;SDS011;65033;44.660;37.758;2023-02-15T00:43:39;3.53;;;2.92;;
75984;SDS011;65033;44.660;37.758;2023-02-15T00:44:42;4.10;;;3.15;;
75984;SDS011;65033;44.660;37.758;2023-02-15T00:45:47;3.00;;;2.70;;
75984;SDS011;65033;44.660;37.758;2023-02-15T00:46:50;4.50;;;3.03;;
75984;SDS011;65033;44.660;37.758;2023-02-15T00:47:55;3.47;;;2.90;;
75984;SDS011;65033;44.660;37.758;2023-02-15T00:48:58;4.20;;;2.85;;
75984;SDS011;65033;44.660;37.758;2023-02-15T00:50:02;4.03;;;3.05;;
75984;SDS011;65033;44.660;37.758;2023-02-15T00:51:05;3.03;;;2.72;;
75984;SDS011;65033;44.660;37.758;2023-02-15T00:52:08;3.00;;;2.70;;
75984;SDS011;65033;44.660;37.758;2023-02-15T00:53:12;3.13;;;2.83;;
75984;SDS011;65033;44.660;37.758;2023-02-15T00:54:15;3.25;;;2.90;;
75984;SDS011;65033;44.660;37.758;2023-02-15T00:55:18;2.80;;;2.55;;
75984;SDS011;65033;44.660;37.758;2023-02-15T00:56:21;2.85;;;2.63;;
75984;SDS011;65033;44.660;37.758;2023-02-15T00:57:25;4.97;;;3.28;;
75984;SDS011;65033;44.660;37.758;2023-02-15T00:58:28;3.13;;;2.80;;
75984;SDS011;65033;44.660;37.758;2023-02-15T00:59:31;3.70;;;3.05;;
75984;SDS011;65033;44.660;37.758;2023-02-15T01:00:35;3.15;;;2.85;;
75984;SDS011;65033;44.660;37.758;2023-02-15T01:01:41;4.20;;;3.40;;
75984;SDS011;65033;44.660;37.758;2023-02-15T01:02:44;3.33;;;2.72;;
75984;SDS011;65033;44.660;37.758;2023-02-15T01:03:47;2.72;;;2.45;;
75984;SDS011;65033;44.660;37.758;2023-02-15T01:04:51;3.50;;;3.15;;
75984;SDS011;65033;44.660;37.758;2023-02-15T01:05:54;2.97;;;2.65;;
75984;SDS011;65033;44.660;37.758;2023-02-15T01:06:58;3.05;;;2.75;;
75984;SDS011;65033;44.660;37.758;2023-02-15T01:08:01;3.25;;;2.95;;
75984;SDS011;65033;44.660;37.758;2023-02-15T01:09:04;3.25;;;2.65;;
75984;SDS011;65033;44.660;37.758;2023-02-15T01:10:07;2.63;;;2.38;;
75984;SDS011;65033;44.660;37.758;2023-02-15T01:11:12;2.90;;;2.60;;
75984;SDS011;65033;44.660;37.758;2023-02-15T01:12:16;3.05;;;2.75;;
75984;SDS011;65033;44.660;37.758;2023-02-15T01:13:22;3.13;;;2.72;;
75984;SDS011;65033;44.660;37.758;2023-02-15T01:14:25;3.22;;;2.75;;
75984;SDS011;65033;44.660;37.758;2023-02-15T01:15:29;3.47;;;2.97;;
75984;SDS011;65033;44.660;37.758;2023-02-15T01:16:33;3.20;;;2.78;;
75984;SDS011;65033;44.660;37.758;2023-02-15T01:17:38;4.53;;;2.70;;
75984;SDS011;65033;44.660;37.758;2023-02-15T01:18:41;3.75;;;2.92;;
75984;SDS011;65033;44.660;37.758;2023-02-15T01:19:44;3.28;;;2.80;;
75984;SDS011;65033;44.660;37.758;2023-02-15T01:20:47;3.17;;;2.63;;
75984;SDS011;65033;44.660;37.758;2023-02-15T01:21:51;2.95;;;2.60;;
75984;SDS011;65033;44.660;37.758;2023-02-15T01:22:54;3.28;;;2.78;;
75984;SDS011;65033;44.660;37.758;2023-02-15T01:23:59;3.88;;;3.08;;
75984;SDS011;65033;44.660;37.758;2023-02-15T01:25:02;3.60;;;2.95;;
75984;SDS011;65033;44.660;37.758;2023-02-15T01:26:05;3.63;;;2.95;;
75984;SDS011;65033;44.660;37.758;2023-02-15T01:27:09;3.08;;;2.60;;
75984;SDS011;65033;44.660;37.758;2023-02-15T01:28:12;3.10;;;2.80;;
75984;SDS011;65033;44.660;37.758;2023-02-15T01:29:15;3.00;;;2.67;;
75984;SDS011;65033;44.660;37.758;2023-02-15T01:30:19;3.13;;;2.83;;
75984;SDS011;65033;44.660;37.758;2023-02-15T01:31:22;3.33;;;3.00;;
75984;SDS011;65033;44.660;37.758;2023-02-15T01:32:25;3.40;;;3.03;;
75984;SDS011;65033;44.660;37.758;2023-02-15T01:33:30;3.40;;;2.65;;
75984;SDS011;65033;44.660;37.758;2023-02-15T01:34:33;3.80;;;2.75;;
75984;SDS011;65033;44.660;37.758;2023-02-15T01:35:37;2.83;;;2.58;;
75984;SDS011;65033;44.660;37.758;2023-02-15T01:36:40;3.95;;;2.88;;
75984;SDS011;65033;44.660;37.758;2023-02-15T01:37:43;3.03;;;2.67;;
75984;SDS011;65033;44.660;37.758;2023-02-15T01:38:46;3.40;;;2.70;;
75984;SDS011;65033;44.660;37.758;2023-02-15T01:39:49;3.70;;;2.92;;
75984;SDS011;65033;44.660;37.758;2023-02-15T01:40:53;3.55;;;2.97;;
75984;SDS011;65033;44.660;37.758;2023-02-15T01:42:20;3.15;;;2.78;;
75984;SDS011;65033;44.660;37.758;2023-02-15T01:43:38;2.90;;;2.65;;
75984;SDS011;65033;44.660;37.758;2023-02-15T01:44:46;3.70;;;2.83;;
75984;SDS011;65033;44.660;37.758;2023-02-15T01:45:54;3.22;;;2.92;;
75984;SDS011;65033;44.660;37.758;2023-02-15T01:46:57;3.55;;;2.72;;
75984;SDS011;65033;44.660;37.758;2023-02-15T01:48:01;3.30;;;2.88;;
75984;SDS011;65033;44.660;37.758;2023-02-15T01:49:11;3.63;;;2.95;;
75984;SDS011;65033;44.660;37.758;2023-02-15T01:50:19;3.60;;;3.15;;
75984;SDS011;65033;44.660;37.758;2023-02-15T01:51:28;3.40;;;2.65;;
75984;SDS011;65033;44.660;37.758;2023-02-15T01:52:35;2.97;;;2.67;;
75984;SDS011;65033;44.660;37.758;2023-02-15T01:53:42;3.85;;;2.92;;
75984;SDS011;65033;44.660;37.758;2023-02-15T01:54:49;3.10;;;2.65;;
75984;SDS011;65033;44.660;37.758;2023-02-15T01:55:53;3.28;;;2.55;;
75984;SDS011;65033;44.660;37.758;2023-02-15T01:57:02;2.88;;;2.47;;
75984;SDS011;65033;44.660;37.758;2023-02-15T01:58:09;3.50;;;2.90;;
75984;SDS011;65033;44.660;37.758;2023-02-15T01:59:14;3.53;;;2.60;;
75984;SDS011;65033;44.660;37.758;2023-02-15T02:00:20;3.60;;;3.13;;
75984;SDS011;65033;44.660;37.758;2023-02-15T02:01:25;3.08;;;2.58;;
75984;SDS011;65033;44.660;37.758;2023-02-15T02:02:32;3.40;;;2.92;;
75984;SDS011;65033;44.660;37.758;2023-02-15T02:03:38;3.10;;;2.80;;
75984;SDS011;65033;44.660;37.758;2023-02-15T02:04:48;4.15;;;2.67;;
75984;SDS011;65033;44.660;37.758;2023-02-15T02:05:53;3.03;;;2.58;;
75984;SDS011;65033;44.660;37.758;2023-02-15T02:06:56;3.30;;;2.90;;
75984;SDS011;65033;44.660;37.758;2023-02-15T02:08:01;3.80;;;2.70;;
75984;SDS011;65033;44.660;37.758;2023-02-15T02:09:05;3.80;;;2.75;;
75984;SDS011;65033;44.660;37.758;2023-02-15T02:10:10;3.70;;;3.00;;
75984;SDS011;65033;44.660;37.758;2023-02-15T02:11:15;3.00;;;2.70;;
75984;SDS011;65033;44.660;37.758;2023-02-15T02:12:21;2.70;;;2.50;;
75984;SDS011;65033;44.660;37.758;2023-02-15T02:13:26;2.83;;;2.53;;
75984;SDS011;65033;44.660;37.758;2023-02-15T02:14:30;3.35;;;2.67;;
75984;SDS011;65033;44.660;37.758;2023-02-15T02:15:36;4.53;;;3.10;;
75984;SDS011;65033;44.660;37.758;2023-02-15T02:16:46;3.25;;;2.78;;
75984;SDS011;65033;44.660;37.758;2023-02-15T02:18:04;3.15;;;2.40;;
75984;SDS011;65033;44.660;37.758;2023-02-15T02:19:26;3.05;;;2.75;;
75984;SDS011;65033;44.660;37.758;2023-02-15T02:24:19;2.42;;;2.20;;
75984;SDS011;65033;44.660;37.758;2023-02-15T02:27:32;3.20;;;2.70;;
75984;SDS011;65033;44.660;37.758;2023-02-15T02:30:34;3.20;;;2.85;;
75984;SDS011;65033;44.660;37.758;2023-02-15T02:32:04;3.63;;;3.15;;
75984;SDS011;65033;44.660;37.758;2023-02-15T02:33:36;3.35;;;2.70;;
75984;SDS011;65033;44.660;37.758;2023-02-15T02:34:48;3.05;;;2.75;;
75984;SDS011;65033;44.660;37.758;2023-02-15T02:35:57;2.70;;;2.50;;
75984;SDS011;65033;44.660;37.758;2023-02-15T02:37:11;3.35;;;2.80;;
75984;SDS011;65033;44.660;37.758;2023-02-15T02:38:21;3.22;;;2.50;;
75984;SDS011;65033;44.660;37.758;2023-02-15T02:39:33;3.40;;;2.72;;
75984;SDS011;65033;44.660;37.758;2023-02-15T02:40:47;3.00;;;2.70;;
75984;SDS011;65033;44.660;37.758;2023-02-15T02:42:00;3.95;;;3.10;;
75984;SDS011;65033;44.660;37.758;2023-02-15T02:43:07;3.47;;;3.17;;
75984;SDS011;65033;44.660;37.758;2023-02-15T02:44:18;3.17;;;2.60;;
75984;SDS011;65033;44.660;37.758;2023-02-15T02:45:26;3.17;;;2.33;;
75984;SDS011;65033;44.660;37.758;2023-02-15T02:46:36;2.80;;;2.55;;
75984;SDS011;65033;44.660;37.758;2023-02-15T02:47:44;3.58;;;2.55;;
75984;SDS011;65033;44.660;37.758;2023-02-15T02:48:52;3.08;;;2.60;;
75984;SDS011;65033;44.660;37.758;2023-02-15T02:49:58;3.20;;;2.78;;
75984;SDS011;65033;44.660;37.758;2023-02-15T02:51:03;3.00;;;2.70;;
75984;SDS011;65033;44.660;37.758;2023-02-15T02:52:07;3.33;;;2.75;;
75984;SDS011;65033;44.660;37.758;2023-02-15T02:53:25;3.20;;;2.70;;
75984;SDS011;65033;44.660;37.758;2023-02-15T02:54:30;2.60;;;2.40;;
75984;SDS011;65033;44.660;37.758;2023-02-15T02:55:36;3.28;;;2.80;;
75984;SDS011;65033;44.660;37.758;2023-02-15T02:56:44;3.40;;;2.55;;
75984;SDS011;65033;44.660;37.758;2023-02-15T02:57:52;3.17;;;2.67;;
75984;SDS011;65033;44.660;37.758;2023-02-15T02:58:59;3.25;;;2.72;;
75984;SDS011;65033;44.660;37.758;2023-02-15T03:00:08;2.58;;;2.38;;
75984;SDS011;65033;44.660;37.758;2023-02-15T03:01:13;3.03;;;2.72;;
75984;SDS011;65033;44.660;37.758;2023-02-15T03:02:23;2.58;;;2.38;;
75984;SDS011;65033;44.660;37.758;2023-02-15T03:03:30;3.22;;;2.92;;
75984;SDS011;65033;44.660;37.758;2023-02-15T03:04:39;2.80;;;2.50;;
75984;SDS011;65033;44.660;37.758;2023-02-15T03:05:46;3.20;;;2.75;;
75984;SDS011;65033;44.660;37.758;2023-02-15T03:06:54;3.83;;;2.90;;
75984;SDS011;65033;44.660;37.758;2023-02-15T03:08:00;3.08;;;2.42;;
75984;SDS011;65033;44.660;37.758;2023-02-15T03:09:09;3.13;;;2.83;;
75984;SDS011;65033;44.660;37.758;2023-02-15T03:10:24;3.47;;;2.60;;
75984;SDS011;65033;44.660;37.758;2023-02-15T03:11:28;2.95;;;2.65;;
75984;SDS011;65033;44.660;37.758;2023-02-15T03:12:33;2.97;;;2.67;;
75984;SDS011;65033;44.660;37.758;2023-02-15T03:13:38;2.88;;;2.53;;
75984;SDS011;65033;44.660;37.758;2023-02-15T03:14:44;3.53;;;3.20;;
75984;SDS011;65033;44.660;37.758;2023-02-15T03:15:51;3.63;;;2.55;;
75984;SDS011;65033;44.660;37.758;2023-02-15T03:17:13;3.22;;;2.92;;
75984;SDS011;65033;44.660;37.758;2023-02-15T03:18:20;3.10;;;2.80;;
75984;SDS011;65033;44.660;37.758;2023-02-15T03:19:28;3.33;;;3.03;;
75984;SDS011;65033;44.660;37.758;2023-02-15T03:20:36;3.58;;;2.50;;
75984;SDS011;65033;44.660;37.758;2023-02-15T03:21:41;4.18;;;2.72;;
75984;SDS011;65033;44.660;37.758;2023-02-15T03:22:53;2.90;;;2.60;;
75984;SDS011;65033;44.660;37.758;2023-02-15T03:24:01;3.05;;;2.58;;
75984;SDS011;65033;44.660;37.758;2023-02-15T03:25:11;2.83;;;2.42;;
75984;SDS011;65033;44.660;37.758;2023-02-15T03:26:19;3.67;;;2.72;;
75984;SDS011;65033;44.660;37.758;2023-02-15T03:27:25;3.67;;;3.00;;
75984;SDS011;65033;44.660;37.758;2023-02-15T03:28:36;3.03;;;2.50;;
75984;SDS011;65033;44.660;37.758;2023-02-15T03:29:45;3.35;;;2.75;;
75984;SDS011;65033;44.660;37.758;2023-02-15T03:30:51;3.65;;;2.60;;
75984;SDS011;65033;44.660;37.758;2023-02-15T03:31:59;3.00;;;2.30;;
75984;SDS011;65033;44.660;37.758;2023-02-15T03:33:04;3.85;;;2.80;;
75984;SDS011;65033;44.660;37.758;2023-02-15T03:34:09;3.33;;;2.90;;
75984;SDS011;65033;44.660;37.758;2023-02-15T03:35:14;3.75;;;2.42;;
75984;SDS011;65033;44.660;37.758;2023-02-15T03:36:20;3.30;;;2.75;;
75984;SDS011;65033;44.660;37.758;2023-02-15T03:37:28;2.83;;;2.58;;
75984;SDS011;65033;44.660;37.758;2023-02-15T03:38:39;4.18;;;2.70;;
75984;SDS011;65033;44.660;37.758;2023-02-15T03:39:48;3.75;;;2.78;;
75984;SDS011;65033;44.660;37.758;2023-02-15T03:40:55;3.45;;;2.92;;
75984;SDS011;65033;44.660;37.758;2023-02-15T03:42:13;2.80;;;2.55;;
75984;SDS011;65033;44.660;37.758;2023-02-15T03:43:21;2.97;;;2.55;;
75984;SDS011;65033;44.660;37.758;2023-02-15T03:44:35;3.92;;;2.85;;
75984;SDS011;65033;44.660;37.758;2023-02-15T03:45:44;3.03;;;2.72;;
75984;SDS011;65033;44.660;37.758;2023-02-15T03:47:00;2.80;;;2.58;;
75984;SDS011;65033;44.660;37.758;2023-02-15T03:48:08;3.67;;;2.90;;
75984;SDS011;65033;44.660;37.758;2023-02-15T03:49:13;3.47;;;3.00;;
75984;SDS011;65033;44.660;37.758;2023-02-15T03:50:21;3.03;;;2.70;;
75984;SDS011;65033;44.660;37.758;2023-02-15T03:51:46;3.05;;;2.60;;
75984;SDS011;65033;44.660;37.758;2023-02-15T03:52:52;3.42;;;2.80;;
75984;SDS011;65033;44.660;37.758;2023-02-15T03:53:57;3.67;;;3.38;;
75984;SDS011;65033;44.660;37.758;2023-02-15T03:55:02;2.70;;;2.47;;
75984;SDS011;65033;44.660;37.758;2023-02-15T03:56:06;2.95;;;2.65;;
75984;SDS011;65033;44.660;37.758;2023-02-15T03:57:12;2.92;;;2.63;;
75984;SDS011;65033;44.660;37.758;2023-02-15T03:58:35;4.30;;;2.90;;
75984;SDS011;65033;44.660;37.758;2023-02-15T03:59:57;7.00;;;5.97;;
75984;SDS011;65033;44.660;37.758;2023-02-15T04:01:22;7.20;;;6.50;;
75984;SDS011;65033;44.660;37.758;2023-02-15T04:02:52;7.38;;;6.57;;
75984;SDS011;65033;44.660;37.758;2023-02-15T04:04:07;7.03;;;5.60;;
75984;SDS011;65033;44.660;37.758;2023-02-15T04:05:14;4.80;;;4.30;;
75984;SDS011;65033;44.660;37.758;2023-02-15T04:06:17;4.72;;;3.85;;
75984;SDS011;65033;44.660;37.758;2023-02-15T04:07:22;5.05;;;4.55;;
75984;SDS011;65033;44.660;37.758;2023-02-15T04:08:25;5.85;;;4.45;;
75984;SDS011;65033;44.660;37.758;2023-02-15T04:09:49;5.05;;;4.55;;
75984;SDS011;65033;44.660;37.758;2023-02-15T04:11:10;5.10;;;4.53;;
75984;SDS011;65033;44.660;37.758;2023-02-15T04:12:14;4.72;;;3.97;;
75984;SDS011;65033;44.660;37.758;2023-02-15T04:13:17;4.22;;;3.72;;
75984;SDS011;65033;44.660;37.758;2023-02-15T04:14:21;4.95;;;4.13;;
75984;SDS011;65033;44.660;37.758;2023-02-15T04:15:42;6.45;;;4.75;;
75984;SDS011;65033;44.660;37.758;2023-02-15T04:17:04;6.15;;;4.57;;
75984;SDS011;65033;44.660;37.758;2023-02-15T04:18:09;5.95;;;5.00;;
75984;SDS011;65033;44.660;37.758;2023-02-15T04:19:12;5.28;;;4.65;;
75984;SDS011;65033;44.660;37.758;2023-02-15T04:20:34;6.13;;;4.55;;
75984;SDS011;65033;44.660;37.758;2023-02-15T04:21:55;5.38;;;4.88;;
75984;SDS011;65033;44.660;37.758;2023-02-15T04:23:18;5.80;;;4.90;;
75984;SDS011;65033;44.660;37.758;2023-02-15T04:24:40;5.82;;;4.97;;
75984;SDS011;65033;44.660;37.758;2023-02-15T04:26:02;5.82;;;5.20;;
75984;SDS011;65033;44.660;37.758;2023-02-15T04:27:09;6.38;;;5.65;;
75984;SDS011;65033;44.660;37.758;2023-02-15T04:28:12;6.00;;;5.07;;
75984;SDS011;65033;44.660;37.758;2023-02-15T04:29:15;6.18;;;5.03;;
75984;SDS011;65033;44.660;37.758;2023-02-15T04:30:19;5.70;;;5.13;;
75984;SDS011;65033;44.660;37.758;2023-02-15T04:31:24;7.45;;;5.10;;
75984;SDS011;65033;44.660;37.758;2023-02-15T04:32:27;6.10;;;5.50;;
75984;SDS011;65033;44.660;37.758;2023-02-15T04:33:31;6.68;;;5.10;;
75984;SDS011;65033;44.660;37.758;2023-02-15T04:34:34;5.50;;;5.00;;
75984;SDS011;65033;44.660;37.758;2023-02-15T04:35:37;5.90;;;5.15;;
75984;SDS011;65033;44.660;37.758;2023-02-15T04:36:40;6.20;;;5.60;;
75984;SDS011;65033;44.660;37.758;2023-02-15T04:37:44;6.97;;;5.50;;
75984;SDS011;65033;44.660;37.758;2023-02-15T04:38:48;6.00;;;5.40;;
75984;SDS011;65033;44.660;37.758;2023-02-15T04:39:52;8.60;;;5.65;;
75984;SDS011;65033;44.660;37.758;2023-02-15T04:40:55;5.72;;;5.07;;
75984;SDS011;65033;44.660;37.758;2023-02-15T04:41:58;6.43;;;5.15;;
75984;SDS011;65033;44.660;37.758;2023-02-15T04:43:01;5.82;;;4.60;;
75984;SDS011;65033;44.660;37.758;2023-02-15T04:44:04;6.78;;;5.80;;
75984;SDS011;65033;44.660;37.758;2023-02-15T04:45:08;7.53;;;6.57;;
75984;SDS011;65033;44.660;37.758;2023-02-15T04:46:11;7.60;;;6.90;;
75984;SDS011;65033;44.660;37.758;2023-02-15T04:47:14;8.63;;;7.72;;
75984;SDS011;65033;44.660;37.758;2023-02-15T04:48:17;7.50;;;6.68;;
75984;SDS011;65033;44.660;37.758;2023-02-15T04:49:20;6.72;;;6.03;;
75984;SDS011;65033;44.660;37.758;2023-02-15T04:50:24;6.57;;;5.90;;
75984;SDS011;65033;44.660;37.758;2023-02-15T04:51:27;6.53;;;5.85;;
75984;SDS011;65033;44.660;37.758;2023-02-15T04:52:30;6.07;;;5.47;;
75984;SDS011;65033;44.660;37.758;2023-02-15T04:53:33;6.75;;;5.65;;
75984;SDS011;65033;44.660;37.758;2023-02-15T04:54:38;6.18;;;5.57;;
75984;SDS011;65033;44.660;37.758;2023-02-15T04:55:42;7.07;;;5.93;;
75984;SDS011;65033;44.660;37.758;2023-02-15T04:56:45;7.88;;;5.97;;
75984;SDS011;65033;44.660;37.758;2023-02-15T04:57:49;7.00;;;6.03;;
75984;SDS011;65033;44.660;37.758;2023-02-15T04:58:52;6.90;;;6.18;;
75984;SDS011;65033;44.660;37.758;2023-02-15T04:59:55;7.57;;;5.60;;
75984;SDS011;65033;44.660;37.758;2023-02-15T05:01:00;6.10;;;5.50;;
75984;SDS011;65033;44.660;37.758;2023-02-15T05:02:05;6.43;;;5.72;;
75984;SDS011;65033;44.660;37.758;2023-02-15T05:03:08;8.18;;;6.70;;
75984;SDS011;65033;44.660;37.758;2023-02-15T05:04:11;7.20;;;5.72;;
75984;SDS011;65033;44.660;37.758;2023-02-15T05:05:15;6.63;;;5.93;;
75984;SDS011;65033;44.660;37.758;2023-02-15T05:06:19;6.00;;;5.40;;
75984;SDS011;65033;44.660;37.758;2023-02-15T05:07:22;6.82;;;5.90;;
75984;SDS011;65033;44.660;37.758;2023-02-15T05:08:25;7.00;;;6.05;;
75984;SDS011;65033;44.660;37.758;2023-02-15T05:09:28;8.18;;;6.03;;
75984;SDS011;65033;44.660;37.758;2023-02-15T05:10:33;6.53;;;5.80;;
75984;SDS011;65033;44.660;37.758;2023-02-15T05:11:37;7.25;;;6.55;;
75984;SDS011;65033;44.660;37.758;2023-02-15T05:12:40;8.23;;;6.25;;
75984;SDS011;65033;44.660;37.758;2023-02-15T05:13:43;6.65;;;5.72;;
75984;SDS011;65033;44.660;37.758;2023-02-15T05:14:46;9.73;;;6.07;;
75984;SDS011;65033;44.660;37.758;2023-02-15T05:15:50;8.23;;;5.72;;
75984;SDS011;65033;44.660;37.758;2023-02-15T05:16:54;8.50;;;6.18;;
75984;SDS011;65033;44.660;37.758;2023-02-15T05:17:57;6.75;;;6.05;;
75984;SDS011;65033;44.660;37.758;2023-02-15T05:19:00;7.15;;;5.93;;
75984;SDS011;65033;44.660;37.758;2023-02-15T05:20:04;6.45;;;5.75;;
75984;SDS011;65033;44.660;37.758;2023-02-15T05:21:08;7.30;;;5.97;;
75984;SDS011;65033;44.660;37.758;2023-02-15T05:22:12;9.45;;;7.43;;
75984;SDS011;65033;44.660;37.758;2023-02-15T05:23:15;10.38;;;8.77;;
75984;SDS011;65033;44.660;37.758;2023-02-15T05:24:18;8.85;;;7.97;;
75984;SDS011;65033;44.660;37.758;2023-02-15T05:25:45;9.88;;;8.07;;
75984;SDS011;65033;44.660;37.758;2023-02-15T05:27:07;7.85;;;7.07;;
75984;SDS011;65033;44.660;37.758;2023-02-15T05:28:32;7.43;;;6.70;;
75984;SDS011;65033;44.660;37.758;2023-02-15T05:29:35;8.63;;;6.68;;
75984;SDS011;65033;44.660;37.758;2023-02-15T05:30:38;7.50;;;6.55;;
75984;SDS011;65033;44.660;37.758;2023-02-15T05:31:42;6.82;;;6.13;;
75984;SDS011;65033;44.660;37.758;2023-02-15T05:32:49;8.27;;;6.82;;
75984;SDS011;65033;44.660;37.758;2023-02-15T05:33:52;8.02;;;6.80;;
75984;SDS011;65033;44.660;37.758;2023-02-15T05:34:56;7.60;;;6.68;;
75984;SDS011;65033;44.660;37.758;2023-02-15T05:35:59;8.43;;;6.82;;
75984;SDS011;65033;44.660;37.758;2023-02-15T05:37:03;6.95;;;6.25;;
75984;SDS011;65033;44.660;37.758;2023-02-15T05:38:06;7.32;;;6.40;;
75984;SDS011;65033;44.660;37.758;2023-02-15T05:39:10;7.15;;;6.45;;
75984;SDS011;65033;44.660;37.758;2023-02-15T05:40:13;7.35;;;6.63;;
75984;SDS011;65033;44.660;37.758;2023-02-15T05:41:18;8.55;;;6.50;;
75984;SDS011;65033;44.660;37.758;2023-02-15T05:42:21;7.40;;;6.60;;
75984;SDS011;65033;44.660;37.758;2023-02-15T05:43:24;7.55;;;6.43;;
75984;SDS011;65033;44.660;37.758;2023-02-15T05:44:28;8.50;;;7.60;;
75984;SDS011;65033;44.660;37.758;2023-02-15T05:45:31;9.30;;;8.27;;
75984;SDS011;65033;44.660;37.758;2023-02-15T05:46:35;11.50;;;8.23;;
75984;SDS011;65033;44.660;37.758;2023-02-15T05:47:38;9.05;;;7.72;;
75984;SDS011;65033;44.660;37.758;2023-02-15T05:48:41;8.52;;;7.22;;
75984;SDS011;65033;44.660;37.758;2023-02-15T05:49:46;9.13;;;7.97;;
75984;SDS011;65033;44.660;37.758;2023-02-15T05:50:56;7.75;;;6.82;;
75984;SDS011;65033;44.660;37.758;2023-02-15T05:52:00;8.13;;;7.32;;
75984;SDS011;65033;44.660;37.758;2023-02-15T05:53:04;9.18;;;7.05;;
75984;SDS011;65033;44.660;37.758;2023-02-15T05:54:07;8.23;;;6.68;;
75984;SDS011;65033;44.660;37.758;2023-02-15T05:55:11;8.73;;;7.28;;
75984;SDS011;65033;44.660;37.758;2023-02-15T05:56:14;8.07;;;6.85;;
75984;SDS011;65033;44.660;37.758;2023-02-15T05:57:19;8.43;;;7.38;;
75984;SDS011;65033;44.660;37.758;2023-02-15T05:58:22;8.48;;;7.57;;
75984;SDS011;65033;44.660;37.758;2023-02-15T05:59:25;10.95;;;7.85;;
75984;SDS011;65033;44.660;37.758;2023-02-15T06:00:30;9.27;;;7.28;;
75984;SDS011;65033;44.660;37.758;2023-02-15T06:01:33;10.43;;;7.30;;
75984;SDS011;65033;44.660;37.758;2023-02-15T06:02:37;8.70;;;7.78;;
75984;SDS011;65033;44.660;37.758;2023-02-15T06:03:41;9.05;;;7.80;;
75984;SDS011;65033;44.660;37.758;2023-02-15T06:04:44;10.13;;;7.57;;
75984;SDS011;65033;44.660;37.758;2023-02-15T06:05:48;7.50;;;6.72;;
75984;SDS011;65033;44.660;37.758;2023-02-15T06:06:51;8.63;;;7.72;;
75984;SDS011;65033;44.660;37.758;2023-02-15T06:07:54;7.80;;;6.93;;
75984;SDS011;65033;44.660;37.758;2023-02-15T06:08:57;8.93;;;7.65;;
75984;SDS011;65033;44.660;37.758;2023-02-15T06:10:00;8.02;;;7.22;;
75984;SDS011;65033;44.660;37.758;2023-02-15T06:11:04;10.48;;;7.53;;
75984;SDS011;65033;44.660;37.758;2023-02-15T06:12:07;8.20;;;7.40;;
75984;SDS011;65033;44.660;37.758;2023-02-15T06:13:12;9.32;;;7.60;;
75984;SDS011;65033;44.660;37.758;2023-02-15T06:14:15;8.38;;;7.57;;
75984;SDS011;65033;44.660;37.758;2023-02-15T06:15:18;8.05;;;6.95;;
75984;SDS011;65033;44.660;37.758;2023-02-15T06:16:22;8.50;;;7.20;;
75984;SDS011;65033;44.660;37.758;2023-02-15T06:17:25;8.65;;;7.13;;
75984;SDS011;65033;44.660;37.758;2023-02-15T06:18:28;7.93;;;7.13;;
75984;SDS011;65033;44.660;37.758;2023-02-15T06:19:31;8.02;;;7.05;;
75984;SDS011;65033;44.660;37.758;2023-02-15T06:20:34;7.45;;;6.63;;
75984;SDS011;65033;44.660;37.758;2023-02-15T06:21:37;7.68;;;6.85;;
75984;SDS011;65033;44.660;37.758;2023-02-15T06:22:40;7.70;;;6.90;;
75984;SDS011;65033;44.660;37.758;2023-02-15T06:23:43;8.00;;;7.03;;
75984;SDS011;65033;44.660;37.758;2023-02-15T06:24:47;8.00;;;6.63;;
75984;SDS011;65033;44.660;37.758;2023-02-15T06:25:50;7.65;;;6.72;;
75984;SDS011;65033;44.660;37.758;2023-02-15T06:26:53;8.77;;;7.13;;
75984;SDS011;65033;44.660;37.758;2023-02-15T06:27:56;8.73;;;7.15;;
75984;SDS011;65033;44.660;37.758;2023-02-15T06:29:01;7.78;;;6.90;;
75984;SDS011;65033;44.660;37.758;2023-02-15T06:30:05;7.40;;;6.57;;
75984;SDS011;65033;44.660;37.758;2023-02-15T06:31:09;8.73;;;6.60;;
75984;SDS011;65033;44.660;37.758;2023-02-15T06:32:12;7.65;;;6.85;;
75984;SDS011;65033;44.660;37.758;2023-02-15T06:33:15;6.68;;;5.97;;
75984;SDS011;65033;44.660;37.758;2023-02-15T06:34:19;7.35;;;6.50;;
75984;SDS011;65033;44.660;37.758;2023-02-15T06:35:22;8.65;;;6.88;;
75984;SDS011;65033;44.660;37.758;2023-02-15T06:36:25;7.28;;;6.57;;
75984;SDS011;65033;44.660;37.758;2023-02-15T06:37:28;6.95;;;6.25;;
75984;SDS011;65033;44.660;37.758;2023-02-15T06:38:31;7.10;;;6.40;;
75984;SDS011;65033;44.660;37.758;2023-02-15T06:39:35;6.78;;;6.07;;
75984;SDS011;65033;44.660;37.758;2023-02-15T06:40:38;8.10;;;6.78;;